sensor_id;sensor_type;location;lat;lon;timestamp;pressure;altitude;pressure_sealevel;temperature;humidity
21760;BME280;11041;50.854;20.580;2024-01-06T00:01:14;97843.41;;;-0.97;100.00
21760;BME280;11041;50.854;20.580;2024-01-06T00:03:44;97828.88;;;-0.96;100.00
21760;BME280;11041;50.854;20.580;2024-01-06T00:06:15;97842.38;;;-0.96;100.00
21760;BME280;11041;50.854;20.580;2024-01-06T00:08:44;97839.38;;;-0.99;100.00
21760;BME280;11041;50.854;20.580;2024-01-06T00:11:11;97840.16;;;-0.99;100.00
21760;BME280;11041;50.854;20.580;2024-01-06T00:13:38;97843.94;;;-1.00;100.00
21760;BME280;11041;50.854;20.580;2024-01-06T00:16:07;97843.16;;;-0.95;100.00
21760;BME280;11041;50.854;20.580;2024-01-06T00:18:35;97843.72;;;-0.93;100.00
21760;BME280;11041;50.854;20.580;2024-01-06T00:21:05;97844.00;;;-0.90;100.00
21760;BME280;11041;50.854;20.580;2024-01-06T00:23:36;97840.50;;;-0.90;100.00
21760;BME280;11041;50.854;20.580;2024-01-06T00:26:06;97845.09;;;-0.86;100.00
21760;BME280;11041;50.854;20.580;2024-01-06T00:28:35;97843.19;;;-0.85;100.00
21760;BME280;11041;50.854;20.580;2024-01-06T00:31:06;97845.13;;;-0.80;100.00
21760;BME280;11041;50.854;20.580;2024-01-06T00:33:35;97844.56;;;-0.77;100.00
21760;BME280;11041;50.854;20.580;2024-01-06T00:36:03;97847.56;;;-0.74;100.00
21760;BME280;11041;50.854;20.580;2024-01-06T00:38:31;97842.44;;;-0.75;100.00
21760;BME280;11041;50.854;20.580;2024-01-06T00:41:01;97848.91;;;-0.76;100.00
21760;BME280;11041;50.854;20.580;2024-01-06T00:43:30;97849.72;;;-0.76;100.00
21760;BME280;11041;50.854;20.580;2024-01-06T00:46:00;97850.81;;;-0.77;100.00
21760;BME280;11041;50.854;20.580;2024-01-06T00:48:29;97853.50;;;-0.77;100.00
21760;BME280;11041;50.854;20.580;2024-01-06T00:50:59;97853.22;;;-0.75;100.00
21760;BME280;11041;50.854;20.580;2024-01-06T00:53:26;97854.88;;;-0.74;100.00
21760;BME280;11041;50.854;20.580;2024-01-06T00:55:54;97851.06;;;-0.73;100.00
21760;BME280;11041;50.854;20.580;2024-01-06T00:58:25;97863.75;;;-0.74;100.00
21760;BME280;11041;50.854;20.580;2024-01-06T01:00:54;97862.41;;;-0.71;100.00
21760;BME280;11041;50.854;20.580;2024-01-06T01:03:21;97866.47;;;-0.69;100.00
21760;BME280;11041;50.854;20.580;2024-01-06T01:05:49;97860.53;;;-0.66;100.00
21760;BME280;11041;50.854;20.580;2024-01-06T01:08:18;97863.53;;;-0.62;100.00
21760;BME280;11041;50.854;20.580;2024-01-06T01:10:48;97864.34;;;-0.56;100.00
21760;BME280;11041;50.854;20.580;2024-01-06T01:13:19;97861.13;;;-0.53;100.00
21760;BME280;11041;50.854;20.580;2024-01-06T01:15:48;97862.47;;;-0.51;100.00
21760;BME280;11041;50.854;20.580;2024-01-06T01:18:15;97858.97;;;-0.51;100.00
21760;BME280;11041;50.854;20.580;2024-01-06T01:20:44;97863.31;;;-0.50;100.00
21760;BME280;11041;50.854;20.580;2024-01-06T01:23:15;97864.91;;;-0.49;100.00
21760;BME280;11041;50.854;20.580;2024-01-06T01:25:44;97860.63;;;-0.45;100.00
21760;BME280;11041;50.854;20.580;2024-01-06T01:28:16;97854.69;;;-0.42;100.00
21760;BME280;11041;50.854;20.580;2024-01-06T01:30:45;97843.91;;;-0.37;100.00
21760;BME280;11041;50.854;20.580;2024-01-06T01:33:16;97845.56;;;-0.31;100.00
21760;BME280;11041;50.854;20.580;2024-01-06T01:35:43;97851.50;;;-0.29;100.00
21760;BME280;11041;50.854;20.580;2024-01-06T01:38:09;97844.75;;;-0.26;100.00
21760;BME280;11041;50.854;20.580;2024-01-06T01:40:38;97835.84;;;-0.22;100.00
21760;BME280;11041;50.854;20.580;2024-01-06T01:43:05;97835.03;;;-0.22;100.00
21760;BME280;11041;50.854;20.580;2024-01-06T01:45:36;97837.22;;;-0.19;99.91
21760;BME280;11041;50.854;20.580;2024-01-06T01:48:05;97831.50;;;-0.23;99.68
21760;BME280;11041;50.854;20.580;2024-01-06T01:50:34;97838.00;;;-0.24;99.61
21760;BME280;11041;50.854;20.580;2024-01-06T01:53:04;97839.34;;;-0.21;100.00
21760;BME280;11041;50.854;20.580;2024-01-06T01:55:33;97850.41;;;-0.17;100.00
21760;BME280;11041;50.854;20.580;2024-01-06T01:58:05;97857.16;;;-0.15;100.00
21760;BME280;11041;50.854;20.580;2024-01-06T02:00:32;97852.06;;;-0.11;100.00
21760;BME280;11041;50.854;20.580;2024-01-06T02:03:03;97843.16;;;-0.07;100.00
21760;BME280;11041;50.854;20.580;2024-01-06T02:05:34;97843.41;;;-0.08;99.92
21760;BME280;11041;50.854;20.580;2024-01-06T02:08:05;97842.06;;;-0.11;99.50
21760;BME280;11041;50.854;20.580;2024-01-06T02:10:33;97835.84;;;-0.16;99.67
21760;BME280;11041;50.854;20.580;2024-01-06T02:13:15;97834.22;;;-0.17;99.49
21760;BME280;11041;50.854;20.580;2024-01-06T02:15:46;97839.63;;;-0.17;100.00
21760;BME280;11041;50.854;20.580;2024-01-06T02:18:16;97835.03;;;-0.17;100.00
21760;BME280;11041;50.854;20.580;2024-01-06T02:20:50;97823.97;;;-0.15;100.00
21760;BME280;11041;50.854;20.580;2024-01-06T02:23:31;97822.06;;;-0.15;100.00
21760;BME280;11041;50.854;20.580;2024-01-06T02:26:03;97813.97;;;-0.15;99.56
21760;BME280;11041;50.854;20.580;2024-01-06T02:28:30;97813.97;;;-0.15;99.38
21760;BME280;11041;50.854;20.580;2024-01-06T02:30:58;97822.91;;;-0.14;99.80
21760;BME280;11041;50.854;20.580;2024-01-06T02:33:26;97826.66;;;-0.15;99.77
21760;BME280;11041;50.854;20.580;2024-01-06T02:35:55;97835.84;;;-0.16;99.81
21760;BME280;11041;50.854;20.580;2024-01-06T02:38:25;97836.66;;;-0.16;100.00
21760;BME280;11041;50.854;20.580;2024-01-06T02:40:53;97827.75;;;-0.16;100.00
21760;BME280;11041;50.854;20.580;2024-01-06T02:43:23;97830.47;;;-0.16;100.00
21760;BME280;11041;50.854;20.580;2024-01-06T02:45:52;97834.22;;;-0.17;100.00
21760;BME280;11041;50.854;20.580;2024-01-06T02:48:20;97839.09;;;-0.14;100.00
21760;BME280;11041;50.854;20.580;2024-01-06T02:50:50;97834.75;;;-0.15;99.79
21760;BME280;11041;50.854;20.580;2024-01-06T02:53:19;97827.75;;;-0.16;100.00
21760;BME280;11041;50.854;20.580;2024-01-06T02:55:46;97819.13;;;-0.18;99.61
21760;BME280;11041;50.854;20.580;2024-01-06T02:58:13;97814.78;;;-0.19;99.85
21760;BME280;11041;50.854;20.580;2024-01-06T03:00:41;97821.81;;;-0.18;99.96
21760;BME280;11041;50.854;20.580;2024-01-06T03:03:09;97814.25;;;-0.16;100.00
21760;BME280;11041;50.854;20.580;2024-01-06T03:05:38;97822.34;;;-0.16;100.00
21760;BME280;11041;50.854;20.580;2024-01-06T03:08:10;97817.50;;;-0.14;100.00
21760;BME280;11041;50.854;20.580;2024-01-06T03:10:39;97819.66;;;-0.11;100.00
21760;BME280;11041;50.854;20.580;2024-01-06T03:13:08;97811.28;;;-0.10;100.00
21760;BME280;11041;50.854;20.580;2024-01-06T03:15:35;97818.31;;;-0.09;99.93
21760;BME280;11041;50.854;20.580;2024-01-06T03:18:02;97809.41;;;-0.09;99.82
21760;BME280;11041;50.854;20.580;2024-01-06T03:20:32;97810.22;;;-0.09;100.00
21760;BME280;11041;50.854;20.580;2024-01-06T03:23:05;97801.00;;;-0.13;99.45
21760;BME280;11041;50.854;20.580;2024-01-06T03:25:31;97813.72;;;-0.13;100.00
21760;BME280;11041;50.854;20.580;2024-01-06T03:27:59;97804.53;;;-0.12;100.00
21760;BME280;11041;50.854;20.580;2024-01-06T03:30:26;97809.41;;;-0.14;99.62
21760;BME280;11041;50.854;20.580;2024-01-06T03:32:57;97809.41;;;-0.14;99.68
21760;BME280;11041;50.854;20.580;2024-01-06T03:35:24;97802.91;;;-0.13;100.00
21760;BME280;11041;50.854;20.580;2024-01-06T03:37:54;97797.25;;;-0.12;99.82
21760;BME280;11041;50.854;20.580;2024-01-06T03:40:23;97801.56;;;-0.11;99.96
21760;BME280;11041;50.854;20.580;2024-01-06T03:42:55;97794.00;;;-0.09;100.00
21760;BME280;11041;50.854;20.580;2024-01-06T03:45:22;97800.75;;;-0.06;99.99
21760;BME280;11041;50.854;20.580;2024-01-06T03:47:52;97798.06;;;-0.06;99.90
21760;BME280;11041;50.854;20.580;2024-01-06T03:50:21;97812.66;;;-0.02;100.00
21760;BME280;11041;50.854;20.580;2024-01-06T03:52:51;97812.38;;;-0.01;100.00
21760;BME280;11041;50.854;20.580;2024-01-06T03:55:20;97816.41;;;0.02;100.00
21760;BME280;11041;50.854;20.580;2024-01-06T03:57:54;97818.31;;;0.07;100.00
21760;BME280;11041;50.854;20.580;2024-01-06T04:00:20;97825.34;;;0.13;100.00
21760;BME280;11041;50.854;20.580;2024-01-06T04:02:54;97832.63;;;0.17;100.00
21760;BME280;11041;50.854;20.580;2024-01-06T04:05:20;97831.00;;;0.21;100.00
21760;BME280;11041;50.854;20.580;2024-01-06T04:07:48;97831.53;;;0.29;100.00
21760;BME280;11041;50.854;20.580;2024-01-06T04:10:15;97826.16;;;0.34;99.83
21760;BME280;11041;50.854;20.580;2024-01-06T04:12:43;97814.50;;;0.38;100.00
21760;BME280;11041;50.854;20.580;2024-01-06T04:15:14;97810.19;;;0.42;99.81
21760;BME280;11041;50.854;20.580;2024-01-06T04:17:41;97808.28;;;0.43;99.15
21760;BME280;11041;50.854;20.580;2024-01-06T04:20:13;97805.31;;;0.45;99.19
21760;BME280;11041;50.854;20.580;2024-01-06T04:22:43;97795.88;;;0.42;98.58
21760;BME280;11041;50.854;20.580;2024-01-06T04:25:18;97803.97;;;0.42;98.65
21760;BME280;11041;50.854;20.580;2024-01-06T04:27:48;97809.13;;;0.44;98.74
21760;BME280;11041;50.854;20.580;2024-01-06T04:30:22;97813.69;;;0.43;98.88
21760;BME280;11041;50.854;20.580;2024-01-06T04:32:55;97811.81;;;0.44;98.67
21760;BME280;11041;50.854;20.580;2024-01-06T04:35:27;97810.19;;;0.42;98.35
21760;BME280;11041;50.854;20.580;2024-01-06T04:37:54;97814.78;;;0.42;98.58
21760;BME280;11041;50.854;20.580;2024-01-06T04:40:23;97808.59;;;0.41;98.64
21760;BME280;11041;50.854;20.580;2024-01-06T04:42:51;97805.59;;;0.43;98.64
21760;BME280;11041;50.854;20.580;2024-01-06T04:45:18;97801.28;;;0.42;98.39
21760;BME280;11041;50.854;20.580;2024-01-06T04:47:46;97794.25;;;0.36;97.93
21760;BME280;11041;50.854;20.580;2024-01-06T04:50:13;97794.78;;;0.33;98.14
21760;BME280;11041;50.854;20.580;2024-01-06T04:52:42;97791.56;;;0.31;98.52
21760;BME280;11041;50.854;20.580;2024-01-06T04:55:10;97794.25;;;0.31;98.53
21760;BME280;11041;50.854;20.580;2024-01-06T04:57:37;97791.31;;;0.27;98.56
21760;BME280;11041;50.854;20.580;2024-01-06T05:00:13;97792.38;;;0.26;98.65
21760;BME280;11041;50.854;20.580;2024-01-06T05:02:43;97795.63;;;0.23;99.08
21760;BME280;11041;50.854;20.580;2024-01-06T05:05:14;97800.22;;;0.23;99.99
21760;BME280;11041;50.854;20.580;2024-01-06T05:07:46;97800.75;;;0.25;99.27
21760;BME280;11041;50.854;20.580;2024-01-06T05:10:15;97801.31;;;0.27;99.22
21760;BME280;11041;50.854;20.580;2024-01-06T05:12:44;97806.41;;;0.28;99.33
21760;BME280;11041;50.854;20.580;2024-01-06T05:15:12;97810.75;;;0.29;99.29
21760;BME280;11041;50.854;20.580;2024-01-06T05:17:42;97800.75;;;0.30;99.06
21760;BME280;11041;50.854;20.580;2024-01-06T05:20:09;97799.66;;;0.31;99.05
21760;BME280;11041;50.854;20.580;2024-01-06T05:22:36;97803.16;;;0.31;98.92
21760;BME280;11041;50.854;20.580;2024-01-06T05:25:08;97815.06;;;0.30;99.25
21760;BME280;11041;50.854;20.580;2024-01-06T05:27:35;97825.63;;;0.32;99.23
21760;BME280;11041;50.854;20.580;2024-01-06T05:30:04;97833.72;;;0.32;99.21
21760;BME280;11041;50.854;20.580;2024-01-06T05:32:33;97828.84;;;0.34;99.10
21760;BME280;11041;50.854;20.580;2024-01-06T05:35:02;97826.97;;;0.34;99.15
21760;BME280;11041;50.854;20.580;2024-01-06T05:37:32;97839.13;;;0.37;99.19
21760;BME280;11041;50.854;20.580;2024-01-06T05:40:04;97842.63;;;0.37;99.06
21760;BME280;11041;50.854;20.580;2024-01-06T05:42:38;97845.88;;;0.39;98.96
21760;BME280;11041;50.854;20.580;2024-01-06T05:45:13;97846.41;;;0.41;98.86
21760;BME280;11041;50.854;20.580;2024-01-06T05:47:45;97844.53;;;0.42;98.46
21760;BME280;11041;50.854;20.580;2024-01-06T05:50:19;97852.63;;;0.42;98.88
21760;BME280;11041;50.854;20.580;2024-01-06T05:52:49;97851.81;;;0.41;98.95
21760;BME280;11041;50.854;20.580;2024-01-06T05:55:19;97859.63;;;0.43;98.98
21760;BME280;11041;50.854;20.580;2024-01-06T05:57:49;97850.19;;;0.46;99.26
21760;BME280;11041;50.854;20.580;2024-01-06T06:00:16;97850.47;;;0.49;99.11
21760;BME280;11041;50.854;20.580;2024-01-06T06:02:45;97849.38;;;0.50;99.13
21760;BME280;11041;50.854;20.580;2024-01-06T06:05:14;97845.59;;;0.51;98.74
21760;BME280;11041;50.854;20.580;2024-01-06T06:07:42;97854.78;;;0.50;98.33
21760;BME280;11041;50.854;20.580;2024-01-06T06:10:11;97859.13;;;0.46;98.19
21760;BME280;11041;50.854;20.580;2024-01-06T06:12:42;97863.69;;;0.46;98.06
21760;BME280;11041;50.854;20.580;2024-01-06T06:15:12;97864.25;;;0.42;97.78
21760;BME280;11041;50.854;20.580;2024-01-06T06:17:39;97866.69;;;0.39;97.78
21760;BME280;11041;50.854;20.580;2024-01-06T06:20:11;97869.41;;;0.34;97.63
21760;BME280;11041;50.854;20.580;2024-01-06T06:22:43;97875.06;;;0.32;98.03
21760;BME280;11041;50.854;20.580;2024-01-06T06:25:14;97871.00;;;0.30;98.54
21760;BME280;11041;50.854;20.580;2024-01-06T06:27:42;97872.09;;;0.34;99.13
21760;BME280;11041;50.854;20.580;2024-01-06T06:30:11;97882.34;;;0.37;99.17
21760;BME280;11041;50.854;20.580;2024-01-06T06:32:38;97888.03;;;0.40;99.27
21760;BME280;11041;50.854;20.580;2024-01-06T06:35:08;97884.50;;;0.45;99.17
21760;BME280;11041;50.854;20.580;2024-01-06T06:37:38;97887.50;;;0.49;99.06
21760;BME280;11041;50.854;20.580;2024-01-06T06:40:09;97881.53;;;0.52;98.84
21760;BME280;11041;50.854;20.580;2024-01-06T06:42:36;97885.03;;;0.52;98.85
21760;BME280;11041;50.854;20.580;2024-01-06T06:45:09;97888.03;;;0.56;98.73
21760;BME280;11041;50.854;20.580;2024-01-06T06:47:38;97896.94;;;0.56;98.78
21760;BME280;11041;50.854;20.580;2024-01-06T06:50:09;97899.09;;;0.59;99.23
21760;BME280;11041;50.854;20.580;2024-01-06T06:52:38;97896.69;;;0.63;98.62
21760;BME280;11041;50.854;20.580;2024-01-06T06:55:07;97901.78;;;0.64;98.09
21760;BME280;11041;50.854;20.580;2024-01-06T06:57:34;97897.22;;;0.65;98.34
21760;BME280;11041;50.854;20.580;2024-01-06T07:00:03;97909.09;;;0.64;97.76
21760;BME280;11041;50.854;20.580;2024-01-06T07:02:35;97892.63;;;0.60;97.74
21760;BME280;11041;50.854;20.580;2024-01-06T07:05:08;97895.59;;;0.59;97.99
21760;BME280;11041;50.854;20.580;2024-01-06T07:07:40;97891.78;;;0.60;98.30
21760;BME280;11041;50.854;20.580;2024-01-06T07:10:10;97893.69;;;0.59;98.24
21760;BME280;11041;50.854;20.580;2024-01-06T07:12:39;97897.50;;;0.58;98.36
21760;BME280;11041;50.854;20.580;2024-01-06T07:15:09;97895.59;;;0.59;98.25
21760;BME280;11041;50.854;20.580;2024-01-06T07:17:38;97903.69;;;0.59;98.48
21760;BME280;11041;50.854;20.580;2024-01-06T07:20:07;97902.91;;;0.63;99.39
21760;BME280;11041;50.854;20.580;2024-01-06T07:22:37;97903.16;;;0.67;99.47
21760;BME280;11041;50.854;20.580;2024-01-06T07:25:08;97911.25;;;0.67;99.00
21760;BME280;11041;50.854;20.580;2024-01-06T07:27:38;97903.16;;;0.67;99.22
21760;BME280;11041;50.854;20.580;2024-01-06T07:30:05;97905.84;;;0.67;99.87
21760;BME280;11041;50.854;20.580;2024-01-06T07:32:38;97899.38;;;0.68;99.29
21760;BME280;11041;50.854;20.580;2024-01-06T07:35:07;97906.69;;;0.68;99.62
21760;BME280;11041;50.854;20.580;2024-01-06T07:37:37;97894.50;;;0.60;99.22
21760;BME280;11041;50.854;20.580;2024-01-06T07:40:05;97892.59;;;0.55;99.58
21760;BME280;11041;50.854;20.580;2024-01-06T07:42:33;97902.91;;;0.53;100.00
21760;BME280;11041;50.854;20.580;2024-01-06T07:44:59;97902.91;;;0.53;100.00
21760;BME280;11041;50.854;20.580;2024-01-06T07:47:26;97908.81;;;0.55;100.00
21760;BME280;11041;50.854;20.580;2024-01-06T07:49:56;97905.06;;;0.56;100.00
21760;BME280;11041;50.854;20.580;2024-01-06T07:52:24;97905.59;;;0.58;100.00
21760;BME280;11041;50.854;20.580;2024-01-06T07:54:53;97901.81;;;0.59;100.00
21760;BME280;11041;50.854;20.580;2024-01-06T07:57:23;97900.44;;;0.62;100.00
21760;BME280;11041;50.854;20.580;2024-01-06T07:59:53;97915.06;;;0.66;100.00
21760;BME280;11041;50.854;20.580;2024-01-06T08:02:23;97911.00;;;0.69;100.00
21760;BME280;11041;50.854;20.580;2024-01-06T08:04:52;97904.22;;;0.71;100.00
21760;BME280;11041;50.854;20.580;2024-01-06T08:07:23;97916.41;;;0.74;100.00
21760;BME280;11041;50.854;20.580;2024-01-06T08:09:49;97907.19;;;0.70;100.00
21760;BME280;11041;50.854;20.580;2024-01-06T08:12:20;97909.63;;;0.71;100.00
21760;BME280;11041;50.854;20.580;2024-01-06T08:14:51;97907.75;;;0.72;100.00
21760;BME280;11041;50.854;20.580;2024-01-06T08:17:20;97902.06;;;0.73;100.00
21760;BME280;11041;50.854;20.580;2024-01-06T08:19:51;97912.09;;;0.73;100.00
21760;BME280;11041;50.854;20.580;2024-01-06T08:22:26;97916.41;;;0.74;100.00
21760;BME280;11041;50.854;20.580;2024-01-06T08:24:53;97915.84;;;0.72;100.00
21760;BME280;11041;50.854;20.580;2024-01-06T08:27:28;97916.94;;;0.76;100.00
21760;BME280;11041;50.854;20.580;2024-01-06T08:29:54;97923.16;;;0.76;100.00
21760;BME280;11041;50.854;20.580;2024-01-06T08:32:22;97918.84;;;0.80;100.00
21760;BME280;11041;50.854;20.580;2024-01-06T08:34:50;97918.03;;;0.80;100.00
21760;BME280;11041;50.854;20.580;2024-01-06T08:37:17;97926.41;;;0.83;100.00
21760;BME280;11041;50.854;20.580;2024-01-06T08:39:44;97934.50;;;0.89;100.00
21760;BME280;11041;50.854;20.580;2024-01-06T08:42:12;97940.72;;;0.94;100.00
21760;BME280;11041;50.854;20.580;2024-01-06T08:44:43;97929.34;;;1.02;100.00
21760;BME280;11041;50.854;20.580;2024-01-06T08:47:12;97942.06;;;1.07;100.00
21760;BME280;11041;50.854;20.580;2024-01-06T08:49:38;97932.03;;;1.08;100.00
21760;BME280;11041;50.854;20.580;2024-01-06T08:52:06;97942.59;;;1.09;100.00
21760;BME280;11041;50.854;20.580;2024-01-06T08:54:33;97941.25;;;1.12;100.00
21760;BME280;11041;50.854;20.580;2024-01-06T08:57:02;97939.31;;;1.17;100.00
21760;BME280;11041;50.854;20.580;2024-01-06T08:59:28;97948.53;;;1.21;100.00
21760;BME280;11041;50.854;20.580;2024-01-06T09:01:56;97950.44;;;1.21;100.00
21760;BME280;11041;50.854;20.580;2024-01-06T09:04:24;97954.75;;;1.22;100.00
21760;BME280;11041;50.854;20.580;2024-01-06T09:06:51;97961.25;;;1.21;100.00
21760;BME280;11041;50.854;20.580;2024-01-06T09:09:17;97959.34;;;1.21;100.00
21760;BME280;11041;50.854;20.580;2024-01-06T09:11:44;97957.75;;;1.20;100.00
21760;BME280;11041;50.854;20.580;2024-01-06T09:14:10;97956.38;;;1.18;100.00
21760;BME280;11041;50.854;20.580;2024-01-06T09:16:37;97966.94;;;1.19;100.00
21760;BME280;11041;50.854;20.580;2024-01-06T09:19:04;97959.63;;;1.20;100.00
21760;BME280;11041;50.854;20.580;2024-01-06T09:21:30;97958.81;;;1.19;100.00
21760;BME280;11041;50.854;20.580;2024-01-06T09:23:57;97963.16;;;1.20;100.00
21760;BME280;11041;50.854;20.580;2024-01-06T09:26:25;97956.38;;;1.23;100.00
21760;BME280;11041;50.854;20.580;2024-01-06T09:28:52;97956.09;;;1.24;100.00
21760;BME280;11041;50.854;20.580;2024-01-06T09:31:19;97958.53;;;1.26;100.00
21760;BME280;11041;50.854;20.580;2024-01-06T09:33:50;97955.28;;;1.29;100.00
21760;BME280;11041;50.854;20.580;2024-01-06T09:36:20;97956.91;;;1.30;100.00
21760;BME280;11041;50.854;20.580;2024-01-06T09:38:47;97962.84;;;1.32;100.00
21760;BME280;11041;50.854;20.580;2024-01-06T09:41:14;97961.47;;;1.35;100.00
21760;BME280;11041;50.854;20.580;2024-01-06T09:43:40;97966.63;;;1.36;100.00
21760;BME280;11041;50.854;20.580;2024-01-06T09:46:20;97970.41;;;1.40;100.00
21760;BME280;11041;50.854;20.580;2024-01-06T09:48:52;97964.47;;;1.38;100.00
21760;BME280;11041;50.854;20.580;2024-01-06T09:51:20;97971.50;;;1.34;100.00
21760;BME280;11041;50.854;20.580;2024-01-06T09:54:08;97981.53;;;1.28;100.00
21760;BME280;11041;50.854;20.580;2024-01-06T09:56:40;97968.81;;;1.24;100.00
21760;BME280;11041;50.854;20.580;2024-01-06T09:59:08;97981.25;;;1.20;100.00
21760;BME280;11041;50.854;20.580;2024-01-06T10:01:36;97970.19;;;1.16;100.00
21760;BME280;11041;50.854;20.580;2024-01-06T10:04:03;97977.75;;;1.14;100.00
21760;BME280;11041;50.854;20.580;2024-01-06T10:06:32;97979.38;;;1.15;100.00
21760;BME280;11041;50.854;20.580;2024-01-06T10:09:02;97982.91;;;1.16;100.00
21760;BME280;11041;50.854;20.580;2024-01-06T10:11:31;97984.78;;;1.15;100.00
21760;BME280;11041;50.854;20.580;2024-01-06T10:13:58;97983.72;;;1.16;100.00
21760;BME280;11041;50.854;20.580;2024-01-06T10:16:25;97980.22;;;1.16;100.00
21760;BME280;11041;50.854;20.580;2024-01-06T10:18:53;97990.75;;;1.17;100.00
21760;BME280;11041;50.854;20.580;2024-01-06T10:21:25;97984.78;;;1.15;100.00
21760;BME280;11041;50.854;20.580;2024-01-06T10:23:56;97985.63;;;1.16;100.00
21760;BME280;11041;50.854;20.580;2024-01-06T10:26:26;97982.63;;;1.17;100.00
21760;BME280;11041;50.854;20.580;2024-01-06T10:28:54;97982.09;;;1.20;100.00
21760;BME280;11041;50.854;20.580;2024-01-06T10:31:22;97982.91;;;1.21;100.00
21760;BME280;11041;50.854;20.580;2024-01-06T10:33:51;97985.31;;;1.22;100.00
21760;BME280;11041;50.854;20.580;2024-01-06T10:36:23;97979.41;;;1.20;100.00
21760;BME280;11041;50.854;20.580;2024-01-06T10:38:52;97983.97;;;1.20;100.00
21760;BME280;11041;50.854;20.580;2024-01-06T10:41:20;97985.88;;;1.19;100.00
21760;BME280;11041;50.854;20.580;2024-01-06T10:43:51;97972.59;;;1.18;100.00
21760;BME280;11041;50.854;20.580;2024-01-06T10:46:26;97980.47;;;1.19;100.00
21760;BME280;11041;50.854;20.580;2024-01-06T10:49:00;97979.09;;;1.22;100.00
21760;BME280;11041;50.854;20.580;2024-01-06T10:51:28;97985.06;;;1.24;100.00
21760;BME280;11041;50.854;20.580;2024-01-06T10:54:00;97973.13;;;1.25;100.00
21760;BME280;11041;50.854;20.580;2024-01-06T10:56:29;97971.25;;;1.25;100.00
21760;BME280;11041;50.854;20.580;2024-01-06T10:59:00;97971.50;;;1.29;100.00
21760;BME280;11041;50.854;20.580;2024-01-06T11:01:30;97976.91;;;1.29;100.00
21760;BME280;11041;50.854;20.580;2024-01-06T11:04:00;97963.94;;;1.26;100.00
21760;BME280;11041;50.854;20.580;2024-01-06T11:06:31;97964.75;;;1.26;100.00
21760;BME280;11041;50.854;20.580;2024-01-06T11:09:18;97958.53;;;1.26;100.00
21760;BME280;11041;50.854;20.580;2024-01-06T11:11:46;97968.25;;;1.27;100.00
21760;BME280;11041;50.854;20.580;2024-01-06T11:14:20;97956.38;;;1.28;100.00
21760;BME280;11041;50.854;20.580;2024-01-06T11:16:47;97962.31;;;1.30;100.00
21760;BME280;11041;50.854;20.580;2024-01-06T11:22:30;97958.75;;;1.35;100.00
21760;BME280;11041;50.854;20.580;2024-01-06T11:25:13;97954.19;;;1.35;100.00
21760;BME280;11041;50.854;20.580;2024-01-06T11:27:44;97952.03;;;1.37;100.00
21760;BME280;11041;50.854;20.580;2024-01-06T11:30:25;97953.06;;;1.41;100.00
21760;BME280;11041;50.854;20.580;2024-01-06T11:32:57;97948.19;;;1.43;100.00
21760;BME280;11041;50.854;20.580;2024-01-06T11:35:27;97947.63;;;1.46;100.00
21760;BME280;11041;50.854;20.580;2024-01-06T11:38:02;97939.78;;;1.50;100.00
21760;BME280;11041;50.854;20.580;2024-01-06T11:40:37;97946.56;;;1.47;100.00
21760;BME280;11041;50.854;20.580;2024-01-06T11:43:11;97944.66;;;1.48;100.00
21760;BME280;11041;50.854;20.580;2024-01-06T11:45:43;97949.28;;;1.47;100.00
21760;BME280;11041;50.854;20.580;2024-01-06T11:48:11;97954.13;;;1.51;100.00
21760;BME280;11041;50.854;20.580;2024-01-06T11:50:41;97956.03;;;1.50;100.00
21760;BME280;11041;50.854;20.580;2024-01-06T11:53:13;97949.53;;;1.51;100.00
21760;BME280;11041;50.854;20.580;2024-01-06T11:55:44;97946.28;;;1.49;100.00
21760;BME280;11041;50.854;20.580;2024-01-06T11:58:13;97954.69;;;1.47;100.00
21760;BME280;11041;50.854;20.580;2024-01-06T12:00:45;97954.72;;;1.42;100.00
21760;BME280;11041;50.854;20.580;2024-01-06T12:03:22;97949.31;;;1.37;100.00
21760;BME280;11041;50.854;20.580;2024-01-06T12:06:01;97952.53;;;1.34;100.00
21760;BME280;11041;50.854;20.580;2024-01-06T12:08:28;97960.44;;;1.25;100.00
21760;BME280;11041;50.854;20.580;2024-01-06T12:11:03;97954.22;;;1.15;100.00
21760;BME280;11041;50.854;20.580;2024-01-06T12:13:30;97953.66;;;1.13;100.00
21760;BME280;11041;50.854;20.580;2024-01-06T12:16:01;97944.50;;;1.09;100.00
21760;BME280;11041;50.854;20.580;2024-01-06T12:18:30;97955.03;;;1.10;100.00
21760;BME280;11041;50.854;20.580;2024-01-06T12:21:13;97958.28;;;1.12;100.00
21760;BME280;11041;50.854;20.580;2024-01-06T12:23:41;97964.25;;;1.09;100.00
21760;BME280;11041;50.854;20.580;2024-01-06T12:26:10;97953.97;;;1.11;100.00
21760;BME280;11041;50.854;20.580;2024-01-06T12:28:37;97963.13;;;1.15;100.00
21760;BME280;11041;50.854;20.580;2024-01-06T12:31:08;97958.81;;;1.19;100.00
21760;BME280;11041;50.854;20.580;2024-01-06T12:33:35;97963.16;;;1.20;100.00
21760;BME280;11041;50.854;20.580;2024-01-06T12:36:06;97969.91;;;1.18;100.00
21760;BME280;11041;50.854;20.580;2024-01-06T12:38:35;97963.69;;;1.17;100.00
21760;BME280;11041;50.854;20.580;2024-01-06T12:41:01;97965.03;;;1.20;100.00
21760;BME280;11041;50.854;20.580;2024-01-06T12:43:29;97960.97;;;1.17;100.00
21760;BME280;11041;50.854;20.580;2024-01-06T12:45:56;97970.19;;;1.16;100.00
21760;BME280;11041;50.854;20.580;2024-01-06T12:48:24;97976.66;;;1.15;100.00
21760;BME280;11041;50.854;20.580;2024-01-06T12:50:52;97972.63;;;1.13;100.00
21760;BME280;11041;50.854;20.580;2024-01-06T12:53:19;97971.81;;;1.12;100.00
21760;BME280;11041;50.854;20.580;2024-01-06T12:55:47;97977.78;;;1.09;100.00
21760;BME280;11041;50.854;20.580;2024-01-06T12:58:14;97981.28;;;1.10;100.00
21760;BME280;11041;50.854;20.580;2024-01-06T13:00:41;97979.13;;;1.06;100.00
21760;BME280;11041;50.854;20.580;2024-01-06T13:03:07;97983.19;;;1.04;100.00
21760;BME280;11041;50.854;20.580;2024-01-06T13:05:35;97970.19;;;1.01;100.00